sensor_id;sensor_type;location;lat;lon;timestamp;P1;durP1;ratioP1;P2;durP2;ratioP2
20894;SDS011;10607;42.066;24.742;2023-12-07T00:02:06;14.17;;;9.07;;
20894;SDS011;10607;42.066;24.742;2023-12-07T00:04:31;13.67;;;9.83;;
20894;SDS011;10607;42.066;24.742;2023-12-07T00:06:56;14.00;;;9.30;;
20894;SDS011;10607;42.066;24.742;2023-12-07T00:09:22;13.47;;;9.00;;
20894;SDS011;10607;42.066;24.742;2023-12-07T00:11:47;14.50;;;8.77;;
20894;SDS011;10607;42.066;24.742;2023-12-07T00:14:12;13.43;;;9.03;;
20894;SDS011;10607;42.066;24.742;2023-12-07T00:16:37;13.20;;;7.97;;
20894;SDS011;10607;42.066;24.742;2023-12-07T00:19:03;12.80;;;8.23;;
20894;SDS011;10607;42.066;24.742;2023-12-07T00:21:28;12.73;;;8.20;;
20894;SDS011;10607;42.066;24.742;2023-12-07T00:23:53;13.40;;;8.43;;
20894;SDS011;10607;42.066;24.742;2023-12-07T00:26:18;12.10;;;8.23;;
20894;SDS011;10607;42.066;24.742;2023-12-07T00:28:43;11.73;;;8.17;;
20894;SDS011;10607;42.066;24.742;2023-12-07T00:31:09;12.67;;;8.17;;
20894;SDS011;10607;42.066;24.742;2023-12-07T00:33:35;12.93;;;7.77;;
20894;SDS011;10607;42.066;24.742;2023-12-07T00:36:00;11.30;;;6.87;;
20894;SDS011;10607;42.066;24.742;2023-12-07T00:38:26;11.30;;;7.63;;
20894;SDS011;10607;42.066;24.742;2023-12-07T00:40:51;9.97;;;6.83;;
20894;SDS011;10607;42.066;24.742;2023-12-07T00:43:16;13.23;;;7.67;;
20894;SDS011;10607;42.066;24.742;2023-12-07T00:45:42;11.03;;;8.23;;
20894;SDS011;10607;42.066;24.742;2023-12-07T00:48:07;11.07;;;7.67;;
20894;SDS011;10607;42.066;24.742;2023-12-07T00:50:32;12.10;;;8.00;;
20894;SDS011;10607;42.066;24.742;2023-12-07T00:52:57;12.57;;;8.07;;
20894;SDS011;10607;42.066;24.742;2023-12-07T00:55:23;14.57;;;7.57;;
20894;SDS011;10607;42.066;24.742;2023-12-07T00:57:48;11.50;;;6.40;;
20894;SDS011;10607;42.066;24.742;2023-12-07T01:00:13;10.40;;;6.00;;
20894;SDS011;10607;42.066;24.742;2023-12-07T01:02:39;9.00;;;5.87;;
20894;SDS011;10607;42.066;24.742;2023-12-07T01:05:04;6.27;;;4.90;;
20894;SDS011;10607;42.066;24.742;2023-12-07T01:07:30;7.73;;;5.10;;
20894;SDS011;10607;42.066;24.742;2023-12-07T01:09:55;8.20;;;5.70;;
20894;SDS011;10607;42.066;24.742;2023-12-07T01:12:21;6.13;;;4.30;;
20894;SDS011;10607;42.066;24.742;2023-12-07T01:14:46;8.80;;;4.80;;
20894;SDS011;10607;42.066;24.742;2023-12-07T01:17:11;6.97;;;5.03;;
20894;SDS011;10607;42.066;24.742;2023-12-07T01:19:36;6.73;;;5.17;;
20894;SDS011;10607;42.066;24.742;2023-12-07T01:22:01;9.17;;;5.00;;
20894;SDS011;10607;42.066;24.742;2023-12-07T01:24:27;8.27;;;5.90;;
20894;SDS011;10607;42.066;24.742;2023-12-07T01:26:52;6.97;;;5.23;;
20894;SDS011;10607;42.066;24.742;2023-12-07T01:29:17;6.67;;;5.20;;
20894;SDS011;10607;42.066;24.742;2023-12-07T01:31:43;7.47;;;5.30;;
20894;SDS011;10607;42.066;24.742;2023-12-07T01:34:08;11.33;;;5.43;;
20894;SDS011;10607;42.066;24.742;2023-12-07T01:36:34;9.60;;;5.17;;
20894;SDS011;10607;42.066;24.742;2023-12-07T01:38:59;6.13;;;5.03;;
20894;SDS011;10607;42.066;24.742;2023-12-07T01:41:25;6.67;;;4.47;;
20894;SDS011;10607;42.066;24.742;2023-12-07T01:43:50;5.83;;;4.27;;
20894;SDS011;10607;42.066;24.742;2023-12-07T01:46:15;6.60;;;5.23;;
20894;SDS011;10607;42.066;24.742;2023-12-07T01:48:41;7.03;;;5.67;;
20894;SDS011;10607;42.066;24.742;2023-12-07T01:51:07;8.33;;;5.07;;
20894;SDS011;10607;42.066;24.742;2023-12-07T01:53:33;8.57;;;5.93;;
20894;SDS011;10607;42.066;24.742;2023-12-07T01:55:58;9.73;;;5.63;;
20894;SDS011;10607;42.066;24.742;2023-12-07T01:58:23;8.37;;;6.23;;
20894;SDS011;10607;42.066;24.742;2023-12-07T02:00:49;9.57;;;6.13;;
20894;SDS011;10607;42.066;24.742;2023-12-07T02:03:14;9.03;;;6.70;;
20894;SDS011;10607;42.066;24.742;2023-12-07T02:05:42;12.87;;;6.77;;
20894;SDS011;10607;42.066;24.742;2023-12-07T02:08:07;11.67;;;6.67;;
20894;SDS011;10607;42.066;24.742;2023-12-07T02:10:32;9.20;;;6.60;;
20894;SDS011;10607;42.066;24.742;2023-12-07T02:12:58;10.07;;;7.00;;
20894;SDS011;10607;42.066;24.742;2023-12-07T02:15:23;12.80;;;7.83;;
20894;SDS011;10607;42.066;24.742;2023-12-07T02:22:54;10.07;;;6.93;;
20894;SDS011;10607;42.066;24.742;2023-12-07T02:25:23;10.63;;;6.97;;
20894;SDS011;10607;42.066;24.742;2023-12-07T02:27:49;12.23;;;7.10;;
20894;SDS011;10607;42.066;24.742;2023-12-07T02:30:14;15.23;;;7.23;;
20894;SDS011;10607;42.066;24.742;2023-12-07T02:32:40;11.47;;;8.17;;
20894;SDS011;10607;42.066;24.742;2023-12-07T02:35:06;11.73;;;7.77;;
20894;SDS011;10607;42.066;24.742;2023-12-07T02:37:37;13.57;;;7.63;;
20894;SDS011;10607;42.066;24.742;2023-12-07T02:40:05;11.13;;;7.13;;
20894;SDS011;10607;42.066;24.742;2023-12-07T02:42:35;16.60;;;9.00;;
20894;SDS011;10607;42.066;24.742;2023-12-07T02:45:00;48.70;;;23.63;;
20894;SDS011;10607;42.066;24.742;2023-12-07T02:47:26;43.07;;;21.50;;
20894;SDS011;10607;42.066;24.742;2023-12-07T02:49:51;18.43;;;11.27;;
20894;SDS011;10607;42.066;24.742;2023-12-07T02:52:16;22.00;;;15.37;;
20894;SDS011;10607;42.066;24.742;2023-12-07T02:54:41;17.20;;;11.33;;
20894;SDS011;10607;42.066;24.742;2023-12-07T02:57:07;22.23;;;10.90;;
20894;SDS011;10607;42.066;24.742;2023-12-07T02:59:32;20.10;;;10.20;;
20894;SDS011;10607;42.066;24.742;2023-12-07T03:01:57;18.13;;;10.60;;
20894;SDS011;10607;42.066;24.742;2023-12-07T03:04:23;13.93;;;9.40;;
20894;SDS011;10607;42.066;24.742;2023-12-07T03:06:48;14.67;;;8.93;;
20894;SDS011;10607;42.066;24.742;2023-12-07T03:09:13;16.93;;;9.23;;
20894;SDS011;10607;42.066;24.742;2023-12-07T03:11:38;12.63;;;7.90;;
20894;SDS011;10607;42.066;24.742;2023-12-07T03:14:03;10.60;;;6.87;;
20894;SDS011;10607;42.066;24.742;2023-12-07T03:16:29;7.63;;;5.83;;
20894;SDS011;10607;42.066;24.742;2023-12-07T03:18:54;9.80;;;5.67;;
20894;SDS011;10607;42.066;24.742;2023-12-07T03:21:19;8.33;;;6.07;;
20894;SDS011;10607;42.066;24.742;2023-12-07T03:23:44;8.77;;;5.60;;
20894;SDS011;10607;42.066;24.742;2023-12-07T03:26:10;9.37;;;6.03;;
20894;SDS011;10607;42.066;24.742;2023-12-07T03:28:35;9.50;;;5.37;;
20894;SDS011;10607;42.066;24.742;2023-12-07T03:31:00;8.00;;;5.03;;
20894;SDS011;10607;42.066;24.742;2023-12-07T03:33:26;10.17;;;5.93;;
20894;SDS011;10607;42.066;24.742;2023-12-07T03:35:51;12.03;;;6.07;;
20894;SDS011;10607;42.066;24.742;2023-12-07T03:38:16;10.63;;;7.17;;
20894;SDS011;10607;42.066;24.742;2023-12-07T03:40:41;9.90;;;6.00;;
20894;SDS011;10607;42.066;24.742;2023-12-07T03:43:07;6.40;;;4.70;;
20894;SDS011;10607;42.066;24.742;2023-12-07T03:45:32;10.17;;;5.43;;
20894;SDS011;10607;42.066;24.742;2023-12-07T03:47:57;9.43;;;6.37;;
20894;SDS011;10607;42.066;24.742;2023-12-07T03:50:22;11.47;;;7.73;;
20894;SDS011;10607;42.066;24.742;2023-12-07T03:52:47;12.17;;;8.73;;
20894;SDS011;10607;42.066;24.742;2023-12-07T03:55:13;21.70;;;12.20;;
20894;SDS011;10607;42.066;24.742;2023-12-07T03:57:38;15.10;;;9.73;;
20894;SDS011;10607;42.066;24.742;2023-12-07T04:00:03;15.07;;;9.10;;
20894;SDS011;10607;42.066;24.742;2023-12-07T04:02:32;10.87;;;7.50;;
20894;SDS011;10607;42.066;24.742;2023-12-07T04:04:58;15.07;;;7.67;;
20894;SDS011;10607;42.066;24.742;2023-12-07T04:07:26;13.83;;;7.67;;
20894;SDS011;10607;42.066;24.742;2023-12-07T04:09:52;11.23;;;7.23;;
20894;SDS011;10607;42.066;24.742;2023-12-07T04:12:17;10.00;;;7.30;;
20894;SDS011;10607;42.066;24.742;2023-12-07T04:14:42;12.30;;;6.93;;
20894;SDS011;10607;42.066;24.742;2023-12-07T04:17:08;14.00;;;7.40;;
20894;SDS011;10607;42.066;24.742;2023-12-07T04:19:33;11.50;;;6.00;;
20894;SDS011;10607;42.066;24.742;2023-12-07T04:21:58;10.83;;;6.60;;
20894;SDS011;10607;42.066;24.742;2023-12-07T04:24:23;8.87;;;6.07;;
20894;SDS011;10607;42.066;24.742;2023-12-07T04:26:48;9.67;;;6.27;;
20894;SDS011;10607;42.066;24.742;2023-12-07T04:29:14;11.23;;;7.13;;
20894;SDS011;10607;42.066;24.742;2023-12-07T04:31:39;17.93;;;8.27;;
20894;SDS011;10607;42.066;24.742;2023-12-07T04:34:05;10.63;;;6.63;;
20894;SDS011;10607;42.066;24.742;2023-12-07T04:36:30;12.27;;;7.23;;
20894;SDS011;10607;42.066;24.742;2023-12-07T04:38:56;11.10;;;6.27;;
20894;SDS011;10607;42.066;24.742;2023-12-07T04:41:21;12.10;;;7.60;;
20894;SDS011;10607;42.066;24.742;2023-12-07T04:43:46;12.10;;;8.63;;
20894;SDS011;10607;42.066;24.742;2023-12-07T04:46:11;17.10;;;8.80;;
20894;SDS011;10607;42.066;24.742;2023-12-07T04:48:36;15.87;;;8.70;;
20894;SDS011;10607;42.066;24.742;2023-12-07T04:51:02;13.43;;;7.53;;
20894;SDS011;10607;42.066;24.742;2023-12-07T04:53:27;11.03;;;6.47;;
20894;SDS011;10607;42.066;24.742;2023-12-07T04:55:52;19.40;;;9.87;;
20894;SDS011;10607;42.066;24.742;2023-12-07T04:58:17;30.37;;;15.03;;
20894;SDS011;10607;42.066;24.742;2023-12-07T05:00:43;37.90;;;16.63;;
20894;SDS011;10607;42.066;24.742;2023-12-07T05:03:08;28.37;;;13.53;;
20894;SDS011;10607;42.066;24.742;2023-12-07T05:05:34;19.30;;;11.07;;
20894;SDS011;10607;42.066;24.742;2023-12-07T05:07:59;19.23;;;11.47;;
20894;SDS011;10607;42.066;24.742;2023-12-07T05:10:24;16.80;;;10.17;;
20894;SDS011;10607;42.066;24.742;2023-12-07T05:12:49;17.60;;;12.90;;
20894;SDS011;10607;42.066;24.742;2023-12-07T05:15:15;18.83;;;11.83;;
20894;SDS011;10607;42.066;24.742;2023-12-07T05:17:40;26.37;;;18.33;;
20894;SDS011;10607;42.066;24.742;2023-12-07T05:20:05;26.07;;;14.17;;
20894;SDS011;10607;42.066;24.742;2023-12-07T05:22:32;26.17;;;14.37;;
20894;SDS011;10607;42.066;24.742;2023-12-07T05:24:57;23.60;;;12.70;;
20894;SDS011;10607;42.066;24.742;2023-12-07T05:27:22;27.60;;;14.70;;
20894;SDS011;10607;42.066;24.742;2023-12-07T05:29:47;18.83;;;11.40;;
20894;SDS011;10607;42.066;24.742;2023-12-07T05:32:13;23.60;;;12.63;;
20894;SDS011;10607;42.066;24.742;2023-12-07T05:34:38;29.53;;;16.63;;
20894;SDS011;10607;42.066;24.742;2023-12-07T05:37:04;27.40;;;14.43;;
20894;SDS011;10607;42.066;24.742;2023-12-07T05:39:29;30.17;;;14.63;;
20894;SDS011;10607;42.066;24.742;2023-12-07T05:41:54;34.57;;;15.47;;
20894;SDS011;10607;42.066;24.742;2023-12-07T05:44:20;37.03;;;17.50;;
20894;SDS011;10607;42.066;24.742;2023-12-07T05:46:47;36.40;;;15.90;;
20894;SDS011;10607;42.066;24.742;2023-12-07T05:49:12;28.40;;;14.80;;
20894;SDS011;10607;42.066;24.742;2023-12-07T05:51:38;29.80;;;16.20;;
20894;SDS011;10607;42.066;24.742;2023-12-07T05:54:03;33.77;;;18.53;;
20894;SDS011;10607;42.066;24.742;2023-12-07T05:56:28;39.47;;;19.33;;
20894;SDS011;10607;42.066;24.742;2023-12-07T05:58:53;46.37;;;22.30;;
20894;SDS011;10607;42.066;24.742;2023-12-07T06:01:19;56.00;;;20.67;;
20894;SDS011;10607;42.066;24.742;2023-12-07T06:03:44;44.57;;;19.03;;
20894;SDS011;10607;42.066;24.742;2023-12-07T06:06:10;55.37;;;24.30;;
20894;SDS011;10607;42.066;24.742;2023-12-07T06:08:36;51.87;;;22.77;;
20894;SDS011;10607;42.066;24.742;2023-12-07T06:11:02;34.13;;;16.57;;
20894;SDS011;10607;42.066;24.742;2023-12-07T06:13:27;29.60;;;14.50;;
20894;SDS011;10607;42.066;24.742;2023-12-07T06:15:52;33.13;;;14.30;;
20894;SDS011;10607;42.066;24.742;2023-12-07T06:18:17;31.30;;;15.90;;
20894;SDS011;10607;42.066;24.742;2023-12-07T06:20:42;21.57;;;12.63;;
20894;SDS011;10607;42.066;24.742;2023-12-07T06:23:08;18.23;;;9.90;;
20894;SDS011;10607;42.066;24.742;2023-12-07T06:25:37;12.93;;;8.00;;
20894;SDS011;10607;42.066;24.742;2023-12-07T06:28:03;14.00;;;8.33;;
20894;SDS011;10607;42.066;24.742;2023-12-07T06:30:28;14.30;;;7.03;;
20894;SDS011;10607;42.066;24.742;2023-12-07T06:32:53;9.80;;;5.37;;
20894;SDS011;10607;42.066;24.742;2023-12-07T06:35:19;8.23;;;5.97;;
20894;SDS011;10607;42.066;24.742;2023-12-07T06:37:44;7.30;;;5.53;;
20894;SDS011;10607;42.066;24.742;2023-12-07T06:40:09;13.80;;;7.03;;
20894;SDS011;10607;42.066;24.742;2023-12-07T06:42:35;10.90;;;7.20;;
20894;SDS011;10607;42.066;24.742;2023-12-07T06:45:01;18.87;;;12.43;;
20894;SDS011;10607;42.066;24.742;2023-12-07T06:47:27;29.80;;;23.73;;
20894;SDS011;10607;42.066;24.742;2023-12-07T06:49:52;16.63;;;11.13;;
20894;SDS011;10607;42.066;24.742;2023-12-07T06:52:17;14.30;;;8.97;;
20894;SDS011;10607;42.066;24.742;2023-12-07T06:54:42;26.17;;;20.03;;
20894;SDS011;10607;42.066;24.742;2023-12-07T06:57:08;36.57;;;19.97;;
20894;SDS011;10607;42.066;24.742;2023-12-07T06:59:33;30.80;;;14.97;;
20894;SDS011;10607;42.066;24.742;2023-12-07T07:01:58;21.13;;;12.30;;
20894;SDS011;10607;42.066;24.742;2023-12-07T07:04:23;16.20;;;11.70;;
20894;SDS011;10607;42.066;24.742;2023-12-07T07:06:49;17.43;;;11.57;;
20894;SDS011;10607;42.066;24.742;2023-12-07T07:09:14;14.77;;;10.90;;
20894;SDS011;10607;42.066;24.742;2023-12-07T07:11:40;15.77;;;10.13;;
20894;SDS011;10607;42.066;24.742;2023-12-07T07:14:06;13.93;;;9.77;;
20894;SDS011;10607;42.066;24.742;2023-12-07T07:16:31;11.63;;;7.67;;
20894;SDS011;10607;42.066;24.742;2023-12-07T07:18:56;10.07;;;7.57;;
20894;SDS011;10607;42.066;24.742;2023-12-07T07:21:21;12.77;;;7.73;;
20894;SDS011;10607;42.066;24.742;2023-12-07T07:23:47;16.47;;;8.80;;
20894;SDS011;10607;42.066;24.742;2023-12-07T07:26:12;17.13;;;9.37;;
20894;SDS011;10607;42.066;24.742;2023-12-07T07:28:41;12.17;;;8.93;;
20894;SDS011;10607;42.066;24.742;2023-12-07T07:31:07;15.77;;;9.03;;
20894;SDS011;10607;42.066;24.742;2023-12-07T07:33:32;13.67;;;8.77;;
20894;SDS011;10607;42.066;24.742;2023-12-07T07:35:57;14.43;;;9.40;;
20894;SDS011;10607;42.066;24.742;2023-12-07T07:38:22;29.73;;;11.53;;
20894;SDS011;10607;42.066;24.742;2023-12-07T07:40:48;13.00;;;9.20;;
20894;SDS011;10607;42.066;24.742;2023-12-07T07:43:13;15.47;;;9.87;;
20894;SDS011;10607;42.066;24.742;2023-12-07T07:45:39;13.60;;;8.73;;
20894;SDS011;10607;42.066;24.742;2023-12-07T07:48:04;13.33;;;9.47;;
20894;SDS011;10607;42.066;24.742;2023-12-07T07:50:29;18.03;;;9.97;;
20894;SDS011;10607;42.066;24.742;2023-12-07T07:52:55;14.53;;;8.50;;
20894;SDS011;10607;42.066;24.742;2023-12-07T07:55:20;15.63;;;9.50;;
20894;SDS011;10607;42.066;24.742;2023-12-07T07:57:45;17.83;;;10.37;;
20894;SDS011;10607;42.066;24.742;2023-12-07T08:00:11;13.63;;;9.43;;
20894;SDS011;10607;42.066;24.742;2023-12-07T08:02:38;16.03;;;10.40;;
20894;SDS011;10607;42.066;24.742;2023-12-07T08:05:03;18.77;;;11.77;;
20894;SDS011;10607;42.066;24.742;2023-12-07T08:07:29;28.33;;;17.30;;
20894;SDS011;10607;42.066;24.742;2023-12-07T08:09:54;57.20;;;28.80;;
20894;SDS011;10607;42.066;24.742;2023-12-07T08:12:19;31.97;;;19.77;;
20894;SDS011;10607;42.066;24.742;2023-12-07T08:14:44;26.83;;;13.47;;
20894;SDS011;10607;42.066;24.742;2023-12-07T08:17:11;16.57;;;10.10;;
20894;SDS011;10607;42.066;24.742;2023-12-07T08:19:36;17.93;;;10.73;;
20894;SDS011;10607;42.066;24.742;2023-12-07T08:22:03;16.23;;;9.87;;
20894;SDS011;10607;42.066;24.742;2023-12-07T08:24:28;17.90;;;10.60;;
20894;SDS011;10607;42.066;24.742;2023-12-07T08:26:53;15.07;;;10.37;;
20894;SDS011;10607;42.066;24.742;2023-12-07T08:29:18;17.23;;;10.43;;
20894;SDS011;10607;42.066;24.742;2023-12-07T08:31:43;15.63;;;10.67;;
20894;SDS011;10607;42.066;24.742;2023-12-07T08:34:09;17.77;;;12.27;;
20894;SDS011;10607;42.066;24.742;2023-12-07T08:36:34;15.83;;;11.40;;
20894;SDS011;10607;42.066;24.742;2023-12-07T08:38:59;18.40;;;12.13;;
20894;SDS011;10607;42.066;24.742;2023-12-07T08:41:24;21.00;;;12.67;;
20894;SDS011;10607;42.066;24.742;2023-12-07T08:43:50;21.50;;;13.70;;
20894;SDS011;10607;42.066;24.742;2023-12-07T08:46:15;20.70;;;13.40;;
20894;SDS011;10607;42.066;24.742;2023-12-07T08:48:40;20.00;;;13.63;;
20894;SDS011;10607;42.066;24.742;2023-12-07T08:51:06;26.90;;;15.57;;
20894;SDS011;10607;42.066;24.742;2023-12-07T08:53:33;27.83;;;16.67;;
20894;SDS011;10607;42.066;24.742;2023-12-07T08:55:58;26.80;;;15.27;;
20894;SDS011;10607;42.066;24.742;2023-12-07T08:58:24;27.97;;;15.57;;
20894;SDS011;10607;42.066;24.742;2023-12-07T09:00:49;21.43;;;12.90;;
20894;SDS011;10607;42.066;24.742;2023-12-07T09:03:15;22.73;;;13.73;;
20894;SDS011;10607;42.066;24.742;2023-12-07T09:05:40;27.17;;;13.70;;
20894;SDS011;10607;42.066;24.742;2023-12-07T09:08:06;21.33;;;12.60;;
20894;SDS011;10607;42.066;24.742;2023-12-07T09:10:31;14.60;;;10.93;;
20894;SDS011;10607;42.066;24.742;2023-12-07T09:12:57;18.37;;;11.37;;
20894;SDS011;10607;42.066;24.742;2023-12-07T09:15:22;14.43;;;10.53;;
20894;SDS011;10607;42.066;24.742;2023-12-07T09:17:47;19.47;;;12.10;;
20894;SDS011;10607;42.066;24.742;2023-12-07T09:20:13;16.33;;;11.30;;
20894;SDS011;10607;42.066;24.742;2023-12-07T09:22:40;14.83;;;10.43;;
20894;SDS011;10607;42.066;24.742;2023-12-07T09:25:06;15.00;;;10.17;;
20894;SDS011;10607;42.066;24.742;2023-12-07T09:27:32;14.23;;;8.67;;
20894;SDS011;10607;42.066;24.742;2023-12-07T09:29:58;15.83;;;9.97;;
20894;SDS011;10607;42.066;24.742;2023-12-07T09:32:23;16.70;;;10.43;;
20894;SDS011;10607;42.066;24.742;2023-12-07T09:34:48;16.65;;;10.68;;
20894;SDS011;10607;42.066;24.742;2023-12-07T09:37:16;15.68;;;10.02;;
20894;SDS011;10607;42.066;24.742;2023-12-07T09:39:41;17.33;;;11.85;;
20894;SDS011;10607;42.066;24.742;2023-12-07T09:42:06;18.58;;;13.05;;
20894;SDS011;10607;42.066;24.742;2023-12-07T09:44:32;26.13;;;11.55;;
20894;SDS011;10607;42.066;24.742;2023-12-07T09:46:57;20.47;;;11.37;;
20894;SDS011;10607;42.066;24.742;2023-12-07T09:49:22;16.33;;;10.23;;
20894;SDS011;10607;42.066;24.742;2023-12-07T09:51:48;19.40;;;10.70;;
20894;SDS011;10607;42.066;24.742;2023-12-07T09:54:14;18.40;;;10.80;;
20894;SDS011;10607;42.066;24.742;2023-12-07T09:56:39;16.47;;;9.53;;
20894;SDS011;10607;42.066;24.742;2023-12-07T09:59:05;17.10;;;9.50;;
20894;SDS011;10607;42.066;24.742;2023-12-07T10:01:31;16.67;;;10.00;;
20894;SDS011;10607;42.066;24.742;2023-12-07T10:06:44;16.70;;;10.03;;
20894;SDS011;10607;42.066;24.742;2023-12-07T10:09:14;18.77;;;12.87;;
20894;SDS011;10607;42.066;24.742;2023-12-07T10:11:40;19.03;;;12.30;;
20894;SDS011;10607;42.066;24.742;2023-12-07T10:14:08;22.37;;;13.20;;
20894;SDS011;10607;42.066;24.742;2023-12-07T10:16:34;21.77;;;14.10;;
20894;SDS011;10607;42.066;24.742;2023-12-07T10:19:14;24.27;;;14.53;;
20894;SDS011;10607;42.066;24.742;2023-12-07T10:21:41;28.23;;;15.60;;
20894;SDS011;10607;42.066;24.742;2023-12-07T10:24:06;27.47;;;14.77;;
20894;SDS011;10607;42.066;24.742;2023-12-07T10:26:32;23.97;;;15.10;;
20894;SDS011;10607;42.066;24.742;2023-12-07T10:28:57;30.87;;;15.23;;
20894;SDS011;10607;42.066;24.742;2023-12-07T10:31:23;24.17;;;15.60;;
20894;SDS011;10607;42.066;24.742;2023-12-07T10:33:49;29.57;;;16.30;;
20894;SDS011;10607;42.066;24.742;2023-12-07T10:36:14;37.00;;;17.73;;
20894;SDS011;10607;42.066;24.742;2023-12-07T10:38:39;36.10;;;15.93;;
20894;SDS011;10607;42.066;24.742;2023-12-07T10:41:07;34.00;;;16.80;;
20894;SDS011;10607;42.066;24.742;2023-12-07T10:43:36;35.33;;;17.00;;
20894;SDS011;10607;42.066;24.742;2023-12-07T10:46:01;38.23;;;18.63;;
20894;SDS011;10607;42.066;24.742;2023-12-07T10:48:27;34.53;;;18.33;;
20894;SDS011;10607;42.066;24.742;2023-12-07T10:50:52;33.67;;;17.60;;
20894;SDS011;10607;42.066;24.742;2023-12-07T10:55:56;30.87;;;18.07;;
20894;SDS011;10607;42.066;24.742;2023-12-07T10:58:24;29.63;;;18.03;;
20894;SDS011;10607;42.066;24.742;2023-12-07T11:00:54;31.53;;;18.50;;
20894;SDS011;10607;42.066;24.742;2023-12-07T11:03:20;32.63;;;18.20;;
20894;SDS011;10607;42.066;24.742;2023-12-07T11:05:48;28.30;;;17.80;;
20894;SDS011;10607;42.066;24.742;2023-12-07T11:08:35;26.97;;;18.33;;
20894;SDS011;10607;42.066;24.742;2023-12-07T11:11:04;32.57;;;18.77;;
20894;SDS011;10607;42.066;24.742;2023-12-07T11:13:32;32.20;;;19.67;;
20894;SDS011;10607;42.066;24.742;2023-12-07T11:16:00;33.63;;;20.10;;
20894;SDS011;10607;42.066;24.742;2023-12-07T11:18:25;35.07;;;20.77;;
20894;SDS011;10607;42.066;24.742;2023-12-07T11:20:51;31.23;;;20.10;;
20894;SDS011;10607;42.066;24.742;2023-12-07T11:23:18;31.77;;;18.63;;
20894;SDS011;10607;42.066;24.742;2023-12-07T11:25:46;35.13;;;20.07;;
20894;SDS011;10607;42.066;24.742;2023-12-07T11:28:12;33.53;;;20.77;;
20894;SDS011;10607;42.066;24.742;2023-12-07T11:30:37;42.50;;;21.50;;
20894;SDS011;10607;42.066;24.742;2023-12-07T11:33:04;29.73;;;20.03;;
20894;SDS011;10607;42.066;24.742;2023-12-07T11:35:29;43.93;;;22.53;;
20894;SDS011;10607;42.066;24.742;2023-12-07T11:38:01;37.80;;;21.43;;
20894;SDS011;10607;42.066;24.742;2023-12-07T11:40:29;36.67;;;20.67;;
20894;SDS011;10607;42.066;24.742;2023-12-07T11:42:54;29.57;;;19.07;;
20894;SDS011;10607;42.066;24.742;2023-12-07T11:48:09;29.57;;;18.20;;
20894;SDS011;10607;42.066;24.742;2023-12-07T11:50:35;35.47;;;18.10;;
20894;SDS011;10607;42.066;24.742;2023-12-07T11:53:00;32.03;;;18.17;;
20894;SDS011;10607;42.066;24.742;2023-12-07T11:55:25;30.93;;;17.87;;
20894;SDS011;10607;42.066;24.742;2023-12-07T11:57:50;37.40;;;18.27;;
20894;SDS011;10607;42.066;24.742;2023-12-07T12:00:17;30.07;;;18.57;;
20894;SDS011;10607;42.066;24.742;2023-12-07T12:02:42;29.13;;;17.97;;
20894;SDS011;10607;42.066;24.742;2023-12-07T12:05:08;37.43;;;20.70;;
20894;SDS011;10607;42.066;24.742;2023-12-07T12:07:33;38.50;;;22.93;;
20894;SDS011;10607;42.066;24.742;2023-12-07T12:10:01;36.53;;;22.33;;
20894;SDS011;10607;42.066;24.742;2023-12-07T12:12:28;38.73;;;21.37;;
20894;SDS011;10607;42.066;24.742;2023-12-07T12:14:54;33.27;;;19.87;;
20894;SDS011;10607;42.066;24.742;2023-12-07T12:17:19;35.40;;;20.40;;
20894;SDS011;10607;42.066;24.742;2023-12-07T12:19:45;32.80;;;19.17;;
20894;SDS011;10607;42.066;24.742;2023-12-07T12:22:10;55.30;;;22.57;;
20894;SDS011;10607;42.066;24.742;2023-12-07T12:24:35;33.80;;;20.87;;
20894;SDS011;10607;42.066;24.742;2023-12-07T12:27:02;31.60;;;18.60;;
20894;SDS011;10607;42.066;24.742;2023-12-07T12:29:27;39.30;;;18.83;;
20894;SDS011;10607;42.066;24.742;2023-12-07T12:31:52;37.33;;;19.67;;
20894;SDS011;10607;42.066;24.742;2023-12-07T12:34:20;29.17;;;17.90;;
20894;SDS011;10607;42.066;24.742;2023-12-07T12:36:45;32.90;;;18.03;;
20894;SDS011;10607;42.066;24.742;2023-12-07T12:39:11;35.13;;;18.07;;
20894;SDS011;10607;42.066;24.742;2023-12-07T12:41:36;34.80;;;20.90;;
20894;SDS011;10607;42.066;24.742;2023-12-07T12:44:01;42.57;;;24.00;;
20894;SDS011;10607;42.066;24.742;2023-12-07T12:46:26;39.07;;;21.17;;
20894;SDS011;10607;42.066;24.742;2023-12-07T12:48:58;29.57;;;17.33;;
20894;SDS011;10607;42.066;24.742;2023-12-07T12:51:27;34.77;;;18.17;;
20894;SDS011;10607;42.066;24.742;2023-12-07T12:53:54;34.93;;;17.83;;
20894;SDS011;10607;42.066;24.742;2023-12-07T12:56:21;32.23;;;20.17;;
20894;SDS011;10607;42.066;24.742;2023-12-07T12:58:47;29.67;;;18.13;;
20894;SDS011;10607;42.066;24.742;2023-12-07T13:01:12;31.73;;;18.17;;
20894;SDS011;10607;42.066;24.742;2023-12-07T13:03:38;29.97;;;17.43;;
20894;SDS011;10607;42.066;24.742;2023-12-07T13:06:03;28.40;;;17.77;;
20894;SDS011;10607;42.066;24.742;2023-12-07T13:08:29;35.43;;;18.00;;
20894;SDS011;10607;42.066;24.742;2023-12-07T13:10:54;28.57;;;17.53;;
20894;SDS011;10607;42.066;24.742;2023-12-07T13:13:19;25.90;;;17.03;;
20894;SDS011;10607;42.066;24.742;2023-12-07T13:15:45;38.40;;;19.80;;
20894;SDS011;10607;42.066;24.742;2023-12-07T13:18:11;36.97;;;20.10;;
20894;SDS011;10607;42.066;24.742;2023-12-07T13:20:36;31.40;;;18.27;;
20894;SDS011;10607;42.066;24.742;2023-12-07T13:23:01;34.17;;;18.57;;
20894;SDS011;10607;42.066;24.742;2023-12-07T13:25:27;27.60;;;17.00;;
20894;SDS011;10607;42.066;24.742;2023-12-07T13:27:52;39.60;;;20.60;;
20894;SDS011;10607;42.066;24.742;2023-12-07T13:30:17;28.53;;;16.43;;
20894;SDS011;10607;42.066;24.742;2023-12-07T13:32:43;28.83;;;17.00;;
20894;SDS011;10607;42.066;24.742;2023-12-07T13:35:08;32.00;;;16.83;;
20894;SDS011;10607;42.066;24.742;2023-12-07T13:37:33;30.33;;;16.23;;
20894;SDS011;10607;42.066;24.742;2023-12-07T13:39:59;27.03;;;16.40;;
20894;SDS011;10607;42.066;24.742;2023-12-07T13:42:24;25.53;;;15.60;;
20894;SDS011;10607;42.066;24.742;2023-12-07T13:44:54;28.27;;;16.10;;
20894;SDS011;10607;42.066;24.742;2023-12-07T13:47:22;32.60;;;17.37;;
20894;SDS011;10607;42.066;24.742;2023-12-07T13:49:51;27.47;;;17.90;;
20894;SDS011;10607;42.066;24.742;2023-12-07T13:52:16;35.30;;;18.07;;
20894;SDS011;10607;42.066;24.742;2023-12-07T13:54:42;30.83;;;18.43;;
20894;SDS011;10607;42.066;24.742;2023-12-07T13:57:08;36.60;;;18.17;;
20894;SDS011;10607;42.066;24.742;2023-12-07T13:59:33;36.63;;;19.57;;
20894;SDS011;10607;42.066;24.742;2023-12-07T14:01:58;45.53;;;19.27;;
20894;SDS011;10607;42.066;24.742;2023-12-07T14:04:24;34.80;;;18.07;;
20894;SDS011;10607;42.066;24.742;2023-12-07T14:06:49;32.20;;;18.37;;
20894;SDS011;10607;42.066;24.742;2023-12-07T14:09:16;37.50;;;18.43;;
20894;SDS011;10607;42.066;24.742;2023-12-07T14:11:41;33.57;;;17.87;;
20894;SDS011;10607;42.066;24.742;2023-12-07T14:14:08;30.80;;;16.53;;
20894;SDS011;10607;42.066;24.742;2023-12-07T14:16:33;40.77;;;18.00;;
20894;SDS011;10607;42.066;24.742;2023-12-07T14:18:58;32.77;;;16.87;;
20894;SDS011;10607;42.066;24.742;2023-12-07T14:21:24;32.07;;;16.73;;